CNU6 weather

Huntsville Seaplane Base
Ontario, Canada

Public forecast

Using degrees Celsius for public forecast. Weather courtesy of forecast.io.

METAR (pilot weather report)

Closest report is Muskoka Airport, 20.7 nm (38.3 km) S. Retrieved 2019/07/24 05:00 UTC (38 minutes ago):

CYQA 240500Z AUTO 31004KT 9SM OVC080 16/10 A2999 RMK SLP155 DENSITY ALT 1100FT

TAF (pilot weather forecast)

Forecast is more than 6 hours old.

Closest forecast is Muskoka Airport, 20.7 nm (38.3 km) S. Retrieved 2019/07/23 20:00 UTC (10 hours ago):

TAF CYQA 231938Z 2320/2402 31012KT P6SM FEW050 SCT140 FM232100 30008KT P6SM BKN070 BKN120 BECMG 2400/2401 28005KT RMK FCST BASED ON AUTO OBS. NXT FCST WILL BE ISSUED AT 241145Z